createdAt,value
2023-05-03T00:04:24.380Z,2.20
2023-05-03T00:09:27.140Z,2.08
2023-05-03T00:14:29.884Z,2.15
2023-05-03T00:19:33.122Z,2.30
2023-05-03T00:24:36.206Z,1.98
2023-05-03T00:29:38.845Z,2.30
2023-05-03T00:34:41.664Z,1.77
2023-05-03T00:39:44.270Z,2.15
2023-05-03T00:44:46.972Z,2.08
2023-05-03T00:49:49.761Z,2.10
2023-05-03T00:54:52.564Z,2.08
2023-05-03T00:59:57.209Z,1.92
2023-05-03T01:05:00.299Z,1.95
2023-05-03T01:10:37.787Z,2.08
2023-05-03T01:16:07.051Z,2.10
2023-05-03T01:21:11.227Z,1.73
2023-05-03T01:26:23.758Z,1.85
2023-05-03T01:31:46.356Z,2.00
2023-05-03T01:36:49.931Z,1.95
2023-05-03T01:41:55.444Z,2.10
2023-05-03T01:46:58.334Z,1.88
2023-05-03T01:52:01.324Z,1.77
2023-05-03T01:57:04.176Z,1.77
2023-05-03T02:02:06.809Z,1.98
2023-05-03T02:07:09.616Z,1.77
2023-05-03T02:12:12.294Z,1.92
2023-05-03T02:17:16.430Z,2.08
2023-05-03T02:22:19.827Z,1.80
2023-05-03T02:27:23.644Z,2.00
2023-05-03T02:32:27.051Z,1.77
2023-05-03T02:37:29.675Z,1.73
2023-05-03T02:42:32.584Z,1.83
2023-05-03T02:47:36.695Z,1.92
2023-05-03T02:52:39.492Z,1.70
2023-05-03T02:57:42.729Z,1.90
2023-05-03T03:02:47.125Z,2.20
2023-05-03T03:07:50.970Z,2.00
2023-05-03T03:12:53.770Z,2.13
2023-05-03T03:18:06.636Z,1.70
2023-05-03T03:23:09.760Z,2.20
2023-05-03T03:28:12.621Z,1.92
2023-05-03T03:33:15.634Z,2.42
2023-05-03T03:38:18.662Z,2.25
2023-05-03T03:43:31.598Z,2.65
2023-05-03T03:48:35.985Z,2.13
2023-05-03T03:53:39.120Z,2.10
2023-05-03T03:58:42.095Z,2.22
2023-05-03T04:03:47.827Z,2.47
2023-05-03T04:08:51.228Z,2.60
2023-05-03T04:13:54.595Z,2.90
2023-05-03T04:18:57.878Z,2.10
2023-05-03T04:24:06.393Z,2.30
2023-05-03T04:29:10.983Z,2.17
2023-05-03T04:34:16.181Z,2.58
2023-05-03T04:39:24.788Z,2.80
2023-05-03T04:44:29.437Z,2.60
2023-05-03T04:49:34.601Z,2.28
2023-05-03T04:54:38.110Z,2.35
2023-05-03T04:59:41.213Z,2.65
2023-05-03T05:04:44.721Z,2.67
2023-05-03T05:09:48.293Z,2.63
2023-05-03T05:14:52.552Z,2.90
2023-05-03T05:19:55.868Z,3.70
2023-05-03T05:24:58.894Z,2.88
2023-05-03T05:30:02.234Z,2.60
2023-05-03T05:35:07.244Z,2.40
2023-05-03T05:40:10.525Z,2.72
2023-05-03T05:45:18.458Z,2.75
2023-05-03T05:50:21.734Z,2.83
2023-05-03T05:55:32.979Z,2.93
2023-05-03T06:00:36.855Z,2.92
2023-05-03T06:05:40.249Z,3.03
2023-05-03T06:10:45.280Z,2.90
2023-05-03T06:15:48.004Z,2.80
2023-05-03T06:20:51.046Z,3.28
2023-05-03T06:25:54.987Z,2.75
2023-05-03T06:30:58.866Z,2.80
2023-05-03T06:36:04.135Z,3.40
2023-05-03T06:41:07.020Z,3.03
2023-05-03T06:46:11.204Z,3.22
2023-05-03T06:51:14.857Z,3.67
2023-05-03T06:56:17.712Z,3.17
2023-05-03T07:01:20.881Z,3.08
2023-05-03T07:06:24.988Z,2.88
2023-05-03T07:11:27.736Z,3.45
2023-05-03T07:16:30.442Z,3.08
2023-05-03T07:21:34.717Z,3.55
2023-05-03T07:26:37.346Z,2.95
2023-05-03T07:31:40.041Z,3.22
2023-05-03T07:36:42.625Z,2.83
2023-05-03T07:41:45.803Z,3.25
2023-05-03T07:46:49.114Z,2.90
2023-05-03T07:51:52.004Z,3.33
2023-05-03T07:56:55.704Z,3.13
2023-05-03T08:02:01.313Z,3.45
2023-05-03T08:07:04.718Z,2.55
2023-05-03T08:12:07.750Z,3.33
2023-05-03T08:17:10.640Z,3.25
2023-05-03T08:22:13.603Z,2.72
2023-05-03T08:27:17.554Z,3.10
2023-05-03T08:32:21.374Z,3.10
2023-05-03T08:37:24.168Z,3.38
2023-05-03T08:42:27.198Z,3.50
2023-05-03T08:47:33.576Z,3.45
2023-05-03T08:52:36.353Z,3.95
2023-05-03T08:57:39.274Z,3.53
2023-05-03T09:02:42.047Z,3.50
2023-05-03T09:08:00.969Z,3.22
2023-05-03T09:13:03.935Z,3.28
2023-05-03T09:18:20.659Z,3.35
2023-05-03T09:23:26.216Z,2.85
2023-05-03T09:28:29.119Z,3.83
2023-05-03T09:33:31.799Z,3.38
2023-05-03T09:38:37.032Z,3.70
2023-05-03T09:43:53.012Z,3.13
2023-05-03T09:48:57.271Z,3.45
2023-05-03T09:54:00.183Z,3.17
2023-05-03T09:59:03.847Z,3.47
2023-05-03T10:04:07.998Z,3.70
2023-05-03T10:09:37.508Z,3.67
2023-05-03T10:14:42.488Z,3.80
2023-05-03T10:19:54.513Z,3.65
2023-05-03T10:25:06.248Z,3.50
2023-05-03T10:30:27.008Z,3.40
2023-05-03T10:35:32.664Z,3.22
2023-05-03T10:40:43.411Z,3.75
2023-05-03T10:45:47.832Z,3.25
2023-05-03T10:50:54.586Z,3.42
2023-05-03T10:56:07.307Z,3.85
2023-05-03T11:01:12.708Z,3.60
2023-05-03T11:06:36.457Z,3.08
2023-05-03T11:11:41.095Z,3.53
2023-05-03T11:16:50.848Z,3.00
2023-05-03T11:21:53.764Z,3.10
2023-05-03T11:26:57.284Z,3.65
2023-05-03T11:32:00.920Z,3.38
2023-05-03T11:37:04.293Z,3.25
2023-05-03T11:42:07.261Z,3.92
2023-05-03T11:47:10.215Z,3.53
2023-05-03T11:52:13.780Z,3.15
2023-05-03T11:57:16.499Z,2.92
2023-05-03T12:02:19.179Z,2.72
2023-05-03T12:07:23.126Z,3.00
2023-05-03T12:12:31.050Z,3.63
2023-05-03T12:17:43.976Z,2.83
2023-05-03T12:22:52.886Z,2.95
2023-05-03T12:28:18.479Z,2.30
2023-05-03T12:33:23.376Z,2.40
2023-05-03T12:38:30.505Z,2.55
2023-05-03T12:43:33.737Z,2.70
2023-05-03T12:48:36.712Z,2.55
2023-05-03T12:53:39.711Z,3.10
2023-05-03T12:58:58.534Z,2.70
2023-05-03T13:04:45.039Z,2.80
2023-05-03T13:09:46.162Z,3.15
2023-05-03T13:14:54.832Z,2.72
2023-05-03T13:19:57.445Z,2.85
2023-05-03T13:25:00.147Z,2.70
2023-05-03T13:30:05.114Z,2.50
2023-05-03T13:35:09.755Z,2.78
2023-05-03T13:40:14.841Z,2.72
2023-05-03T13:45:18.409Z,2.05
2023-05-03T13:50:21.385Z,2.35
2023-05-03T13:55:26.526Z,2.47
2023-05-03T14:00:31.604Z,2.42
2023-05-03T14:05:35.567Z,2.55
2023-05-03T14:10:38.205Z,2.40
2023-05-03T14:15:43.258Z,2.70
2023-05-03T14:20:46.042Z,2.38
2023-05-03T14:25:48.733Z,2.63
2023-05-03T14:30:51.685Z,2.40
2023-05-03T14:35:56.268Z,2.22
2023-05-03T14:40:59.638Z,2.85
2023-05-03T14:46:02.345Z,2.60
2023-05-03T14:51:05.274Z,2.50
2023-05-03T14:56:07.988Z,2.50
2023-05-03T15:01:18.655Z,3.15
2023-05-03T15:06:26.720Z,3.08
2023-05-03T15:11:29.341Z,2.90
2023-05-03T15:16:34.607Z,3.00
2023-05-03T15:21:46.750Z,3.10
2023-05-03T15:26:49.950Z,3.08
2023-05-03T15:31:52.997Z,3.05
2023-05-03T15:36:56.159Z,3.15
2023-05-03T15:41:58.714Z,3.28
2023-05-03T15:47:02.049Z,3.60
2023-05-03T15:52:05.685Z,3.20
2023-05-03T15:57:09.854Z,3.60
2023-05-03T16:02:12.749Z,4.15
2023-05-03T16:07:15.741Z,3.40
2023-05-03T16:12:18.574Z,3.53
2023-05-03T16:17:22.171Z,2.58
2023-05-03T16:22:24.805Z,2.80
2023-05-03T16:27:27.523Z,2.80
2023-05-03T16:32:30.305Z,2.85
2023-05-03T16:37:36.114Z,3.47
2023-05-03T16:42:39.637Z,3.20
2023-05-03T16:47:42.853Z,3.08
2023-05-03T16:52:45.587Z,3.20
2023-05-03T16:57:48.244Z,3.10
2023-05-03T17:02:51.399Z,3.20
2023-05-03T17:07:54.446Z,2.85
2023-05-03T17:12:59.881Z,2.55
2023-05-03T17:18:04.445Z,3.00
2023-05-03T17:23:07.594Z,2.53
2023-05-03T17:28:10.421Z,3.53
2023-05-03T17:33:13.304Z,2.60
2023-05-03T17:38:16.110Z,3.25
2023-05-03T17:43:19.007Z,3.35
2023-05-03T17:48:21.901Z,1.80
2023-05-03T17:53:24.516Z,1.70
2023-05-03T17:58:27.354Z,2.22
2023-05-03T18:03:31.606Z,1.60
2023-05-03T18:08:34.541Z,1.90
2023-05-03T18:13:38.409Z,1.58
2023-05-03T18:18:41.091Z,2.08
2023-05-03T18:23:44.554Z,1.40
2023-05-03T18:28:47.477Z,1.65
2023-05-03T18:33:50.250Z,1.33
2023-05-03T18:38:54.282Z,1.83
2023-05-03T18:43:58.624Z,2.10
2023-05-03T18:49:03.410Z,2.90
2023-05-03T18:54:06.857Z,2.40
2023-05-03T18:59:09.480Z,2.58
2023-05-03T19:04:14.067Z,3.13
2023-05-03T19:09:17.208Z,2.90
2023-05-03T19:14:20.125Z,2.63
2023-05-03T19:19:23.899Z,3.10
2023-05-03T19:24:28.029Z,3.50
2023-05-03T19:29:31.198Z,3.53
2023-05-03T19:34:36.211Z,3.17
2023-05-03T19:39:39.000Z,3.00
2023-05-03T19:44:41.779Z,3.80
2023-05-03T19:49:45.255Z,3.08
2023-05-03T19:54:47.889Z,3.30
2023-05-03T19:59:50.933Z,3.65
2023-05-03T20:04:53.556Z,4.43
2023-05-03T20:09:56.313Z,9.73
2023-05-03T20:14:58.950Z,7.00
2023-05-03T20:20:10.502Z,5.00
2023-05-03T20:25:13.068Z,3.72
2023-05-03T20:30:16.657Z,3.65
2023-05-03T20:35:19.523Z,3.72
2023-05-03T20:40:22.324Z,4.47
2023-05-03T20:45:25.112Z,3.80
2023-05-03T20:50:28.387Z,3.83
2023-05-03T20:55:31.114Z,3.75
2023-05-03T21:00:33.798Z,4.60
2023-05-03T21:05:36.392Z,5.60
2023-05-03T21:10:39.063Z,5.95
2023-05-03T21:15:42.671Z,6.05
2023-05-03T21:20:45.368Z,5.57
2023-05-03T21:25:48.121Z,5.43
2023-05-03T21:30:50.864Z,4.68
2023-05-03T21:35:53.724Z,3.60
2023-05-03T21:41:08.715Z,3.90
2023-05-03T21:46:11.443Z,3.88
2023-05-03T21:51:21.937Z,3.30
2023-05-03T21:56:24.659Z,3.58
2023-05-03T22:01:27.568Z,3.47
2023-05-03T22:06:31.220Z,3.72
2023-05-03T22:11:33.898Z,3.40
2023-05-03T22:16:37.847Z,2.95
2023-05-03T22:21:40.740Z,3.55
2023-05-03T22:26:43.322Z,3.20
2023-05-03T22:31:46.294Z,3.60
2023-05-03T22:36:48.998Z,3.10
2023-05-03T22:41:51.683Z,3.13
2023-05-03T22:46:54.355Z,3.15
2023-05-03T22:51:57.084Z,3.28
2023-05-03T22:56:59.810Z,2.88
2023-05-03T23:02:02.490Z,2.95
2023-05-03T23:07:05.082Z,3.25
2023-05-03T23:12:07.771Z,3.10
2023-05-03T23:17:10.825Z,2.67
2023-05-03T23:22:13.380Z,2.47
2023-05-03T23:27:16.051Z,2.40
2023-05-03T23:32:19.113Z,2.80
2023-05-03T23:37:22.261Z,2.85
2023-05-03T23:42:24.934Z,2.42
2023-05-03T23:47:27.673Z,2.67
2023-05-03T23:52:30.269Z,2.53
2023-05-03T23:57:32.939Z,2.63
